This is the latest recevied weather packets stored in our database for station/object EA1PVC-10. If no packets are shown the sender has not sent any weather packets the latest 10 day(s).
| Time | Temp. | Humidity | Pressure | Rain* | Wind** | Luminosity | Snow |
|---|---|---|---|---|---|---|---|
| 1777940204 | 7.78° C | 100% | 922 hPa | - | - | - | - |
| 1777939303 | 8.33° C | 100% | 922 hPa | - | - | - | - |
| 1777938404 | 8.33° C | 100% | 922.7 hPa | - | - | - | - |
| 1777937503 | 3.89° C | 100% | 915.7 hPa | - | - | - | - |
| 1777936592 | 8.33° C | 100% | 921.9 hPa | - | - | - | - |
| 1777935692 | 8.33° C | 100% | 921.9 hPa | - | - | - | - |
| 1777934792 | 8.89° C | 100% | 921.9 hPa | - | - | - | - |
| 1777933892 | 8.89° C | 100% | 921.9 hPa | - | - | - | - |
| 1777932992 | 8.89° C | 100% | 922 hPa | - | - | - | - |
| 1777932092 | 9.44° C | 100% | 922 hPa | - | - | - | - |
| 1777931192 | 9.44° C | 100% | 922 hPa | - | - | - | - |
| 1777930292 | 9.44° C | 100% | 921.9 hPa | - | - | - | - |
| 1777929392 | 9.44° C | 100% | 921.8 hPa | - | - | - | - |
| 1777928492 | 9.44° C | 100% | 921.7 hPa | - | - | - | - |
| 1777927591 | 9.44° C | 100% | 921.5 hPa | - | - | - | - |
| 1777926691 | 5° C | 100% | 914.8 hPa | - | - | - | - |
| 1777925778 | 9.44° C | 100% | 921.1 hPa | - | - | - | - |
| 1777924878 | 9.44° C | 100% | 921 hPa | - | - | - | - |
| 1777923978 | 9.44° C | 100% | 920.8 hPa | - | - | - | - |
| 1777923077 | 8.89° C | 100% | 920.7 hPa | - | - | - | - |
| 1777922177 | 7.78° C | 100% | 921.5 hPa | - | - | - | - |
| 1777921278 | 11.11° C | 88% | 920.7 hPa | - | - | - | - |
| 1777920377 | 12.22° C | 74% | 920.2 hPa | - | - | - | - |
| 1777919477 | 13.89° C | 68% | 920.2 hPa | - | - | - | - |
| 1777918577 | 22.78° C | 50% | 920.1 hPa | - | - | - | - |
* Rain since midnight (hover to see other rain measurements)
** Current wind speed in m/s (hover to see current wind gust speed)